Time;durP1;ratioP1;P1;durP2;ratioP2;P2;SDS_P1;SDS_P2;PMS_P1;PMS_P2;Temp;Humidity;BMP_temperature;BMP_pressure;BME280_temperature;BME280_humidity;BME280_pressure;Samples;Min_cycle;Max_cycle;Signal;HPM_P1;HPM_P2
2023/07/06 00:00:23;;;;;;;10.48;6.55;;;;;;;;;;6210071;28;20018;-88
2023/07/06 00:03:24;;;;;;;10.90;6.13;;;;;;;;;;6204562;28;20433;-75
2023/07/06 00:06:24;;;;;;;13.83;6.43;;;;;;;;;;6219291;28;20369;-75
2023/07/06 00:09:24;;;;;;;11.57;7.07;;;;;;;;;;6212561;28;20129;-75
2023/07/06 00:12:24;;;;;;;12.87;6.63;;;;;;;;;;6221128;28;20362;-74
2023/07/06 00:15:25;;;;;;;12.45;7.13;;;;;;;;;;6200139;28;20018;-74
2023/07/06 00:18:27;;;;;;;20.80;6.20;;;;;;;;;;6218259;28;20045;-74
2023/07/06 00:21:29;;;;;;;15.27;6.75;;;;;;;;;;6221319;28;20036;-74
2023/07/06 00:24:30;;;;;;;12.27;7.43;;;;;;;;;;6221889;28;20030;-75
2023/07/06 00:27:31;;;;;;;11.80;8.10;;;;;;;;;;6220562;28;20065;-75
2023/07/06 00:30:53;;;;;;;11.23;7.20;;;;;;;;;;6215138;28;20386;-75
2023/07/06 00:33:53;;;;;;;12.52;7.72;;;;;;;;;;6233242;28;20071;-83
2023/07/06 00:36:53;;;;;;;12.20;5.80;;;;;;;;;;6216042;28;20041;-88
2023/07/06 00:39:54;;;;;;;10.88;6.57;;;;;;;;;;6224696;28;20038;-87
2023/07/06 00:42:54;;;;;;;12.07;7.43;;;;;;;;;;6225318;28;20032;-89
2023/07/06 00:45:59;;;;;;;12.57;7.30;;;;;;;;;;6231835;28;20034;-86
2023/07/06 00:49:01;;;;;;;13.55;6.90;;;;;;;;;;6232037;28;20503;-88
2023/07/06 00:52:02;;;;;;;11.77;6.97;;;;;;;;;;6233786;28;20014;-88
2023/07/06 00:55:03;;;;;;;11.90;7.88;;;;;;;;;;6233494;28;20045;-85
2023/07/06 00:58:09;;;;;;;9.45;6.07;;;;;;;;;;6238882;28;20408;-84
2023/07/06 01:01:11;;;;;;;16.60;6.18;;;;;;;;;;6227068;28;20021;-88
2023/07/06 01:04:13;;;;;;;14.15;6.75;;;;;;;;;;6223724;28;20025;-88
2023/07/06 01:07:18;;;;;;;13.55;7.28;;;;;;;;;;6224405;28;20033;-88
2023/07/06 01:10:19;;;;;;;10.23;6.13;;;;;;;;;;6226158;28;20054;-87
2023/07/06 01:13:21;;;;;;;7.53;5.20;;;;;;;;;;6207804;28;20057;-93
2023/07/06 01:16:25;;;;;;;13.05;6.22;;;;;;;;;;6207902;28;20034;-89
2023/07/06 01:19:31;;;;;;;13.40;7.50;;;;;;;;;;6225551;28;20058;-87
2023/07/06 01:22:55;;;;;;;14.38;7.38;;;;;;;;;;6224837;28;20080;-93
2023/07/06 01:25:59;;;;;;;18.25;7.70;;;;;;;;;;6225906;28;20030;-86
2023/07/06 01:29:35;;;;;;;25.80;7.63;;;;;;;;;;6221966;28;20021;-88
2023/07/06 01:32:39;;;;;;;13.88;7.88;;;;;;;;;;6126337;28;20451;-89
2023/07/06 01:35:53;;;;;;;13.85;6.88;;;;;;;;;;6221046;28;20006;-92
2023/07/06 01:39:12;;;;;;;13.88;7.40;;;;;;;;;;6205491;28;20022;-87
2023/07/06 01:42:22;;;;;;;9.40;7.13;;;;;;;;;;6219980;28;20080;-91
2023/07/06 01:45:23;;;;;;;17.98;7.72;;;;;;;;;;6207876;28;20017;-87
2023/07/06 01:48:25;;;;;;;13.30;7.32;;;;;;;;;;6227496;28;20041;-90
2023/07/06 01:51:32;;;;;;;13.25;7.38;;;;;;;;;;6222977;28;20022;-92
2023/07/06 01:54:38;;;;;;;13.80;7.35;;;;;;;;;;6217022;28;20025;-92
2023/07/06 01:58:10;;;;;;;15.57;8.02;;;;;;;;;;6230374;28;20022;-85
2023/07/06 02:01:13;;;;;;;15.48;7.97;;;;;;;;;;6178020;28;20107;-85
2023/07/06 02:04:13;;;;;;;;;;;;;;;;;;6234343;28;20026;-84
2023/07/06 02:07:16;;;;;;;12.57;7.43;;;;;;;;;;6231485;28;19913;-85
2023/07/06 02:10:17;;;;;;;12.52;7.65;;;;;;;;;;6232412;28;20017;-88
2023/07/06 02:13:17;;;;;;;12.23;7.00;;;;;;;;;;6235604;28;20024;-86
2023/07/06 02:16:17;;;;;;;11.83;7.37;;;;;;;;;;6235543;28;20033;-87
2023/07/06 02:19:20;;;;;;;11.13;7.75;;;;;;;;;;6234295;28;20076;-87
2023/07/06 02:22:21;;;;;;;10.43;7.45;;;;;;;;;;6235023;28;20048;-87
2023/07/06 02:25:21;;;;;;;11.97;7.87;;;;;;;;;;6214902;28;20026;-84
2023/07/06 02:28:22;;;;;;;12.10;7.80;;;;;;;;;;6234927;28;20469;-87
2023/07/06 02:31:22;;;;;;;11.70;6.77;;;;;;;;;;6237045;28;20029;-87
2023/07/06 02:34:25;;;;;;;10.67;6.33;;;;;;;;;;6233339;28;20049;-86
2023/07/06 02:37:26;;;;;;;10.98;6.57;;;;;;;;;;6215703;28;20030;-86
2023/07/06 02:40:26;;;;;;;10.00;5.77;;;;;;;;;;6232491;28;20088;-82
2023/07/06 02:43:26;;;;;;;9.60;5.05;;;;;;;;;;6235637;28;20495;-89
2023/07/06 02:46:29;;;;;;;7.03;4.37;;;;;;;;;;6239895;28;20014;-80
2023/07/06 02:49:30;;;;;;;8.98;5.32;;;;;;;;;;6236494;28;20029;-81
2023/07/06 02:52:30;;;;;;;11.67;5.97;;;;;;;;;;6229899;28;20029;-86
2023/07/06 02:55:32;;;;;;;8.37;4.47;;;;;;;;;;6233659;28;20034;-84
2023/07/06 02:58:34;;;;;;;10.15;6.28;;;;;;;;;;6234679;28;20029;-89
2023/07/06 03:01:34;;;;;;;19.35;5.82;;;;;;;;;;6232072;28;20452;-83
2023/07/06 03:04:36;;;;;;;12.27;7.17;;;;;;;;;;6197264;28;20029;-73
2023/07/06 03:07:36;;;;;;;12.25;6.25;;;;;;;;;;6216463;28;20071;-73
2023/07/06 03:10:38;;;;;;;12.50;6.75;;;;;;;;;;6213545;28;20014;-73
2023/07/06 03:13:39;;;;;;;11.52;6.35;;;;;;;;;;6228318;28;20014;-86
2023/07/06 03:16:42;;;;;;;10.53;6.20;;;;;;;;;;6239508;28;20404;-83
2023/07/06 03:19:42;;;;;;;16.73;8.18;;;;;;;;;;6236669;28;20188;-88
2023/07/06 03:22:45;;;;;;;16.52;8.52;;;;;;;;;;6235506;28;20034;-74
2023/07/06 03:25:49;;;;;;;15.65;7.93;;;;;;;;;;6221111;28;20104;-73
2023/07/06 03:28:50;;;;;;;14.30;7.68;;;;;;;;;;6219357;28;20113;-74
2023/07/06 03:31:50;;;;;;;16.33;7.40;;;;;;;;;;6220061;28;20028;-74
2023/07/06 03:34:50;;;;;;;10.40;5.97;;;;;;;;;;6215768;28;20041;-73
2023/07/06 03:37:53;;;;;;;14.20;7.83;;;;;;;;;;6221882;28;20010;-73
2023/07/06 03:40:53;;;;;;;10.88;6.28;;;;;;;;;;6203936;28;20530;-74
2023/07/06 03:43:58;;;;;;;13.27;7.50;;;;;;;;;;6221482;28;20030;-74
2023/07/06 03:46:58;;;;;;;12.10;7.03;;;;;;;;;;6217820;28;20080;-74
2023/07/06 03:49:58;;;;;;;11.00;6.60;;;;;;;;;;6213522;28;20426;-74
2023/07/06 03:52:58;;;;;;;14.63;7.10;;;;;;;;;;6221933;28;20025;-73
2023/07/06 03:55:59;;;;;;;13.43;6.40;;;;;;;;;;6221321;28;20428;-73
2023/07/06 03:58:59;;;;;;;9.50;6.30;;;;;;;;;;6217827;28;20022;-73
2023/07/06 04:01:59;;;;;;;9.57;5.60;;;;;;;;;;6216127;28;20578;-74
2023/07/06 04:05:00;;;;;;;10.97;5.57;;;;;;;;;;6218729;28;20391;-74
2023/07/06 04:08:04;;;;;;;10.50;5.93;;;;;;;;;;6220307;28;20030;-74
2023/07/06 04:11:05;;;;;;;11.90;5.85;;;;;;;;;;6221392;28;20081;-74
2023/07/06 04:14:05;;;;;;;13.02;5.75;;;;;;;;;;6214987;28;20018;-74
2023/07/06 04:17:07;;;;;;;12.07;5.45;;;;;;;;;;6217008;28;20015;-74
2023/07/06 04:20:18;;;;;;;10.88;6.22;;;;;;;;;;6220630;28;20050;-74
2023/07/06 04:23:19;;;;;;;9.77;4.85;;;;;;;;;;6221155;28;20051;-74
2023/07/06 04:26:20;;;;;;;15.47;5.80;;;;;;;;;;6220192;28;20503;-74
2023/07/06 04:29:20;;;;;;;10.97;4.70;;;;;;;;;;6217651;28;20022;-75
2023/07/06 04:32:23;;;;;;;10.43;5.63;;;;;;;;;;6218301;28;20791;-85
2023/07/06 04:35:23;;;;;;;11.43;5.72;;;;;;;;;;6220476;28;20026;-87
2023/07/06 04:38:29;;;;;;;11.23;4.43;;;;;;;;;;6214487;28;20017;-87
2023/07/06 04:41:29;;;;;;;15.07;5.05;;;;;;;;;;6204394;28;20057;-84
2023/07/06 04:44:30;;;;;;;7.67;4.30;;;;;;;;;;6214930;28;20018;-82
2023/07/06 04:47:32;;;;;;;9.77;4.60;;;;;;;;;;6215849;28;20096;-84
2023/07/06 04:50:33;;;;;;;11.02;4.25;;;;;;;;;;6220181;28;20069;-87
2023/07/06 04:53:33;;;;;;;9.47;3.97;;;;;;;;;;6212278;28;20006;-88
2023/07/06 04:56:37;;;;;;;6.82;3.90;;;;;;;;;;6220267;28;20087;-87
2023/07/06 04:59:37;;;;;;;10.52;4.75;;;;;;;;;;6220862;28;20029;-84
2023/07/06 05:02:37;;;;;;;7.50;4.18;;;;;;;;;;6219643;28;20070;-84
2023/07/06 05:05:40;;;;;;;7.93;4.97;;;;;;;;;;6219997;28;20032;-83
2023/07/06 05:08:43;;;;;;;9.90;4.30;;;;;;;;;;6220441;28;20048;-85
2023/07/06 05:11:44;;;;;;;8.98;4.28;;;;;;;;;;6219501;28;20041;-87
2023/07/06 05:14:44;;;;;;;14.00;4.30;;;;;;;;;;6220212;28;20041;-85
2023/07/06 05:17:45;;;;;;;9.07;4.33;;;;;;;;;;6219349;28;20057;-85
2023/07/06 05:20:48;;;;;;;8.30;3.40;;;;;;;;;;6214737;28;20054;-85
2023/07/06 05:23:49;;;;;;;7.13;3.47;;;;;;;;;;6202381;28;20088;-87
2023/07/06 05:26:49;;;;;;;8.77;3.80;;;;;;;;;;6219662;28;20026;-85
2023/07/06 05:29:49;;;;;;;7.28;4.00;;;;;;;;;;6219726;28;20018;-85
2023/07/06 05:32:50;;;;;;;5.87;3.47;;;;;;;;;;6216657;28;20093;-82
2023/07/06 05:35:51;;;;;;;8.13;3.40;;;;;;;;;;6197204;28;20104;-85
2023/07/06 05:38:51;;;;;;;9.25;4.43;;;;;;;;;;6217249;28;20397;-86
2023/07/06 05:41:52;;;;;;;8.00;4.22;;;;;;;;;;6219791;28;20014;-82
2023/07/06 05:44:52;;;;;;;9.30;3.50;;;;;;;;;;6216570;28;20423;-84
2023/07/06 05:47:53;;;;;;;6.50;4.33;;;;;;;;;;6219114;28;20026;-83
2023/07/06 05:50:53;;;;;;;10.47;4.53;;;;;;;;;;6220299;28;20026;-82
2023/07/06 05:53:53;;;;;;;9.17;3.57;;;;;;;;;;6220391;28;20029;-81
2023/07/06 05:56:55;;;;;;;8.77;3.85;;;;;;;;;;6222432;28;20029;-83
2023/07/06 05:59:55;;;;;;;;;;;;;;;;;;6215432;28;20560;-82
2023/07/06 06:02:56;;;;;;;6.60;3.60;;;;;;;;;;6214674;28;19909;-86
2023/07/06 06:05:56;;;;;;;7.30;4.13;;;;;;;;;;6213197;28;20050;-86
2023/07/06 06:08:58;;;;;;;6.77;3.50;;;;;;;;;;6201702;28;20046;-85
2023/07/06 06:11:58;;;;;;;;;;;;;;;;;;6188295;28;20123;-86
2023/07/06 06:14:58;;;;;;;5.13;2.92;;;;;;;;;;6210436;28;20339;-75
2023/07/06 06:17:59;;;;;;;8.40;3.43;;;;;;;;;;6211641;28;20096;-75
2023/07/06 06:20:59;;;;;;;9.38;3.53;;;;;;;;;;6215960;28;20014;-75
2023/07/06 06:24:00;;;;;;;7.70;3.63;;;;;;;;;;6217521;28;20387;-75
2023/07/06 06:27:01;;;;;;;;;;;;;;;;;;6209237;28;20524;-75
2023/07/06 06:30:01;;;;;;;9.10;3.75;;;;;;;;;;6215933;28;19980;-75
2023/07/06 06:33:03;;;;;;;7.30;3.43;;;;;;;;;;6217525;28;20419;-75
2023/07/06 06:36:03;;;;;;;6.40;3.15;;;;;;;;;;6214204;28;20515;-76
2023/07/06 06:39:04;;;;;;;9.43;3.73;;;;;;;;;;6197996;28;20014;-76
2023/07/06 06:42:05;;;;;;;;;;;;;;;;;;6216023;28;20099;-76
2023/07/06 06:45:06;;;;;;;5.88;2.58;;;;;;;;;;6215093;28;19909;-76
2023/07/06 06:48:06;;;;;;;5.68;3.00;;;;;;;;;;6221746;28;20025;-76
2023/07/06 06:51:10;;;;;;;6.97;3.30;;;;;;;;;;6222792;28;20038;-76
2023/07/06 06:54:10;;;;;;;6.55;3.33;;;;;;;;;;6222480;28;20045;-75
2023/07/06 06:57:10;;;;;;;6.13;2.90;;;;;;;;;;6222651;28;20022;-75
2023/07/06 07:00:14;;;;;;;10.33;3.30;;;;;;;;;;6213240;28;20448;-75
2023/07/06 07:03:14;;;;;;;5.20;2.78;;;;;;;;;;6212592;28;20022;-86
2023/07/06 07:06:14;;;;;;;8.13;3.67;;;;;;;;;;6224597;28;20026;-86
2023/07/06 07:09:17;;;;;;;6.17;3.07;;;;;;;;;;6223366;28;20018;-85
2023/07/06 07:12:18;;;;;;;6.25;2.88;;;;;;;;;;6220436;28;20017;-75
2023/07/06 07:15:19;;;;;;;8.00;3.15;;;;;;;;;;6221754;28;20014;-75
2023/07/06 07:18:21;;;;;;;9.07;3.35;;;;;;;;;;6222629;28;20061;-76
2023/07/06 07:21:21;;;;;;;5.60;2.83;;;;;;;;;;6219713;28;20026;-75
2023/07/06 07:24:21;;;;;;;8.73;3.27;;;;;;;;;;6219465;28;20590;-76
2023/07/06 07:27:22;;;;;;;6.30;2.93;;;;;;;;;;6200667;28;20026;-76
2023/07/06 07:30:23;;;;;;;5.72;3.15;;;;;;;;;;6221648;28;20534;-75
2023/07/06 07:33:24;;;;;;;6.77;3.40;;;;;;;;;;6221369;28;20020;-83
2023/07/06 07:36:24;;;;;;;7.05;3.58;;;;;;;;;;6194463;28;20026;-86
2023/07/06 07:39:26;;;;;;;6.70;3.20;;;;;;;;;;6221831;28;20504;-85
2023/07/06 07:42:26;;;;;;;7.75;2.72;;;;;;;;;;6220523;28;20728;-84
2023/07/06 07:45:26;;;;;;;7.83;3.30;;;;;;;;;;6222250;28;20034;-82
2023/07/06 07:48:27;;;;;;;5.18;2.85;;;;;;;;;;6220677;28;20017;-83
2023/07/06 07:51:29;;;;;;;5.87;3.00;;;;;;;;;;6224177;28;20025;-84
2023/07/06 07:54:30;;;;;;;5.80;2.75;;;;;;;;;;6218619;28;20570;-85
2023/07/06 07:57:31;;;;;;;8.43;3.00;;;;;;;;;;6222492;28;20018;-84
2023/07/06 08:00:32;;;;;;;5.93;2.63;;;;;;;;;;6218731;28;20726;-82
2023/07/06 08:03:33;;;;;;;5.95;2.65;;;;;;;;;;6218767;28;20025;-84
2023/07/06 08:06:33;;;;;;;5.75;2.80;;;;;;;;;;6217682;28;20033;-85
2023/07/06 08:09:34;;;;;;;6.95;2.72;;;;;;;;;;6219271;28;20021;-81
2023/07/06 08:12:34;;;;;;;5.23;2.70;;;;;;;;;;6218373;28;20022;-83
2023/07/06 08:15:37;;;;;;;7.37;3.07;;;;;;;;;;6221299;28;20024;-83
2023/07/06 08:18:38;;;;;;;5.70;3.05;;;;;;;;;;6220536;28;20050;-81
2023/07/06 08:21:40;;;;;;;5.72;2.67;;;;;;;;;;6217363;28;20026;-81
2023/07/06 08:24:40;;;;;;;7.72;2.70;;;;;;;;;;6220098;28;20022;-82
2023/07/06 08:27:40;;;;;;;4.97;2.97;;;;;;;;;;6205608;28;20214;-83
2023/07/06 08:30:42;;;;;;;5.17;2.30;;;;;;;;;;6224436;28;20551;-82
2023/07/06 08:33:42;;;;;;;6.07;2.50;;;;;;;;;;6234510;28;20018;-82
2023/07/06 08:36:43;;;;;;;8.40;3.23;;;;;;;;;;6230513;28;20026;-81
2023/07/06 08:39:44;;;;;;;6.07;2.85;;;;;;;;;;6230171;28;20018;-81
2023/07/06 08:42:45;;;;;;;8.38;3.15;;;;;;;;;;6228450;28;20473;-82
2023/07/06 08:45:46;;;;;;;6.53;2.55;;;;;;;;;;6223659;28;20380;-83
2023/07/06 08:48:46;;;;;;;;;;;;;;;;;;6228853;28;20037;-83
2023/07/06 08:51:48;;;;;;;3.47;2.22;;;;;;;;;;6225007;28;19964;-81
2023/07/06 08:54:50;;;;;;;6.53;2.95;;;;;;;;;;6219870;28;20047;-82
2023/07/06 08:57:52;;;;;;;5.07;2.20;;;;;;;;;;6215261;28;20056;-83
2023/07/06 09:01:00;;;;;;;3.50;1.95;;;;;;;;;;6215018;28;20053;-83
2023/07/06 09:04:06;;;;;;;5.53;2.13;;;;;;;;;;6216336;28;20493;-82
2023/07/06 09:07:12;;;;;;;7.85;2.53;;;;;;;;;;6214713;28;20056;-82
2023/07/06 09:10:19;;;;;;;6.18;3.13;;;;;;;;;;6217711;28;20448;-81
2023/07/06 09:13:27;;;;;;;4.40;2.50;;;;;;;;;;6218268;28;20076;-82
2023/07/06 09:16:28;;;;;;;7.35;2.85;;;;;;;;;;6218883;28;20029;-83
2023/07/06 09:19:31;;;;;;;11.25;2.30;;;;;;;;;;6217373;28;20042;-83
2023/07/06 09:22:31;;;;;;;6.97;2.80;;;;;;;;;;6217637;28;20028;-83
2023/07/06 09:25:36;;;;;;;7.13;2.47;;;;;;;;;;6200714;28;20474;-83
2023/07/06 09:28:36;;;;;;;5.00;2.47;;;;;;;;;;6218558;28;20029;-81
2023/07/06 09:31:37;;;;;;;11.03;2.73;;;;;;;;;;6214303;28;20151;-82
2023/07/06 09:34:38;;;;;;;6.07;2.03;;;;;;;;;;6193921;28;20042;-82
2023/07/06 09:37:48;;;;;;;6.68;3.17;;;;;;;;;;6214242;28;20014;-82
2023/07/06 09:40:49;;;;;;;8.75;2.78;;;;;;;;;;6212140;28;20029;-83
2023/07/06 09:43:49;;;;;;;;;;;;;;;;;;6212319;28;20157;-82
2023/07/06 09:46:49;;;;;;;8.15;2.90;;;;;;;;;;6200390;28;19917;-82
2023/07/06 09:49:55;;;;;;;9.73;2.47;;;;;;;;;;6215885;28;20022;-81
2023/07/06 09:52:56;;;;;;;5.07;2.58;;;;;;;;;;6218488;28;20736;-76
2023/07/06 09:55:56;;;;;;;6.20;2.97;;;;;;;;;;6212057;28;20026;-75
2023/07/06 09:58:56;;;;;;;;;;;;;;;;;;6218524;28;20485;-76
2023/07/06 10:02:05;;;;;;;8.85;3.97;;;;;;;;;;6217168;28;19912;-77
2023/07/06 10:05:24;;;;;;;5.30;2.92;;;;;;;;;;6217587;28;20018;-76
2023/07/06 10:08:44;;;;;;;6.38;2.30;;;;;;;;;;6215193;28;20030;-75
2023/07/06 10:11:50;;;;;;;5.67;2.50;;;;;;;;;;6212747;28;20041;-76
2023/07/06 10:14:51;;;;;;;7.22;2.22;;;;;;;;;;6200361;28;20025;-76
2023/07/06 10:17:51;;;;;;;;;;;;;;;;;;6214812;28;20081;-76
2023/07/06 10:20:54;;;;;;;4.50;2.63;;;;;;;;;;6214883;28;19913;-76
2023/07/06 10:24:01;;;;;;;4.38;2.67;;;;;;;;;;6217494;28;20022;-77
2023/07/06 10:27:03;;;;;;;8.55;2.70;;;;;;;;;;6206854;28;20069;-76
2023/07/06 10:30:08;;;;;;;5.75;2.80;;;;;;;;;;6216640;28;20113;-75
2023/07/06 10:33:11;;;;;;;5.35;2.13;;;;;;;;;;6215326;28;20037;-76
2023/07/06 10:36:12;;;;;;;4.63;2.35;;;;;;;;;;6218443;28;20030;-76
2023/07/06 10:39:32;;;;;;;9.07;2.65;;;;;;;;;;6214822;28;20093;-74
2023/07/06 10:42:32;;;;;;;5.85;2.53;;;;;;;;;;6213836;28;20033;-81
2023/07/06 10:45:33;;;;;;;10.03;2.83;;;;;;;;;;6217876;28;20068;-80
2023/07/06 10:48:34;;;;;;;7.85;2.80;;;;;;;;;;6218217;28;20041;-82
2023/07/06 10:51:44;;;;;;;5.05;2.30;;;;;;;;;;6215914;28;20022;-81
2023/07/06 10:54:46;;;;;;;4.83;2.70;;;;;;;;;;6211307;28;20030;-82
2023/07/06 10:57:54;;;;;;;5.65;2.53;;;;;;;;;;6216128;28;20435;-82
2023/07/06 11:00:59;;;;;;;4.93;2.42;;;;;;;;;;6202997;28;20026;-82
2023/07/06 11:04:00;;;;;;;6.72;3.05;;;;;;;;;;6201452;28;20053;-83
2023/07/06 11:07:01;;;;;;;7.45;2.70;;;;;;;;;;6214840;28;20102;-83
2023/07/06 11:10:13;;;;;;;5.30;3.60;;;;;;;;;;6218602;28;20073;-81
2023/07/06 11:13:18;;;;;;;7.78;2.70;;;;;;;;;;6217438;28;20030;-82
2023/07/06 11:16:26;;;;;;;6.80;3.00;;;;;;;;;;6190519;28;20033;-84
2023/07/06 11:19:29;;;;;;;7.50;2.38;;;;;;;;;;6226593;28;20050;-84
2023/07/06 11:22:30;;;;;;;7.55;3.13;;;;;;;;;;6222275;28;20032;-84
2023/07/06 11:25:31;;;;;;;7.30;2.47;;;;;;;;;;6203884;28;20026;-83
2023/07/06 11:28:32;;;;;;;4.00;2.47;;;;;;;;;;6224641;28;20689;-86
2023/07/06 11:31:45;;;;;;;8.45;2.33;;;;;;;;;;6216078;28;20026;-84
2023/07/06 11:34:45;;;;;;;5.85;2.70;;;;;;;;;;6231227;28;20047;-85
2023/07/06 11:37:56;;;;;;;3.95;2.53;;;;;;;;;;6230309;28;20025;-85
2023/07/06 11:41:09;;;;;;;6.22;2.85;;;;;;;;;;6229809;28;20109;-84
2023/07/06 11:44:28;;;;;;;6.05;2.50;;;;;;;;;;6230996;28;20369;-84
2023/07/06 11:47:53;;;;;;;8.35;2.70;;;;;;;;;;6229459;28;20032;-83
2023/07/06 11:50:54;;;;;;;10.48;2.60;;;;;;;;;;6236064;28;20022;-80
2023/07/06 11:53:59;;;;;;;4.90;2.15;;;;;;;;;;6223351;28;20116;-82
2023/07/06 12:03:28;;;;;;;9.13;3.17;;;;;;;;;;6233905;28;20089;-84
2023/07/06 12:06:30;;;;;;;6.90;2.47;;;;;;;;;;6233668;28;20082;-81
2023/07/06 12:09:30;;;;;;;5.30;2.42;;;;;;;;;;6231825;28;20022;-84
2023/07/06 12:12:32;;;;;;;4.80;1.97;;;;;;;;;;6196263;28;20033;-87
2023/07/06 12:15:36;;;;;;;5.40;2.13;;;;;;;;;;6221261;28;20077;-85
2023/07/06 12:18:37;;;;;;;6.43;2.35;;;;;;;;;;6245548;28;20061;-87
2023/07/06 12:21:38;;;;;;;;;;;;;;;;;;6243239;28;20026;-86
2023/07/06 12:24:39;;;;;;;;;;;;;;;;;;6231919;28;20393;-84
2023/07/06 12:27:39;;;;;;;8.05;2.53;;;;;;;;;;6231555;28;20462;-85
2023/07/06 12:30:40;;;;;;;6.82;2.40;;;;;;;;;;6223891;28;20061;-84
2023/07/06 12:33:40;;;;;;;7.10;2.73;;;;;;;;;;6220945;28;20457;-83
2023/07/06 12:36:42;;;;;;;6.72;2.40;;;;;;;;;;6225796;28;20030;-84
2023/07/06 12:39:44;;;;;;;8.30;2.45;;;;;;;;;;6221457;28;20041;-82
2023/07/06 12:42:44;;;;;;;7.28;2.42;;;;;;;;;;6220007;28;20029;-82
2023/07/06 12:45:44;;;;;;;3.30;2.30;;;;;;;;;;6217285;28;20052;-82
2023/07/06 12:48:47;;;;;;;6.00;2.60;;;;;;;;;;6218215;28;20284;-80
2023/07/06 12:51:48;;;;;;;5.18;2.65;;;;;;;;;;6219398;28;20020;-82
2023/07/06 12:54:52;;;;;;;5.70;2.75;;;;;;;;;;6219958;28;20022;-82
2023/07/06 12:57:53;;;;;;;5.55;2.13;;;;;;;;;;6202095;28;20021;-81
2023/07/06 13:00:55;;;;;;;;;;;;;;;;;;6220669;28;20022;-81
2023/07/06 13:04:14;;;;;;;8.05;3.17;;;;;;;;;;6217597;28;19920;-80
2023/07/06 13:07:18;;;;;;;6.28;2.92;;;;;;;;;;6215948;28;20415;-81
2023/07/06 13:10:20;;;;;;;6.85;3.35;;;;;;;;;;6213285;28;20603;-82
2023/07/06 13:13:20;;;;;;;9.27;3.30;;;;;;;;;;6209201;28;20058;-81
2023/07/06 13:16:21;;;;;;;;;;;;;;;;;;6219729;28;20036;-81
2023/07/06 13:19:23;;;;;;;6.05;3.28;;;;;;;;;;6215921;28;19921;-81
2023/07/06 13:22:23;;;;;;;7.93;3.78;;;;;;;;;;6213860;28;20045;-81
2023/07/06 13:25:23;;;;;;;;;;;;;;;;;;6217794;28;20480;-81
2023/07/06 13:28:23;;;;;;;5.93;3.22;;;;;;;;;;6215021;28;19917;-82
2023/07/06 13:31:26;;;;;;;;;;;;;;;;;;6220470;28;20049;-82
2023/07/06 13:34:28;;;;;;;9.30;3.40;;;;;;;;;;6217552;28;20482;-81
2023/07/06 13:37:31;;;;;;;6.28;3.30;;;;;;;;;;6222620;28;20021;-81
2023/07/06 13:40:32;;;;;;;6.18;2.80;;;;;;;;;;6212137;28;20045;-82
2023/07/06 13:43:32;;;;;;;6.35;3.30;;;;;;;;;;6219570;28;20064;-81
2023/07/06 13:46:34;;;;;;;6.27;3.57;;;;;;;;;;6217505;28;20049;-80
2023/07/06 13:49:37;;;;;;;6.97;3.22;;;;;;;;;;6190150;28;20026;-81
2023/07/06 13:52:38;;;;;;;6.22;3.63;;;;;;;;;;6220754;28;20025;-80
2023/07/06 13:55:44;;;;;;;8.75;3.13;;;;;;;;;;6219483;28;20014;-82
2023/07/06 13:58:44;;;;;;;5.50;3.60;;;;;;;;;;6216621;28;20463;-81
2023/07/06 14:01:47;;;;;;;7.73;4.03;;;;;;;;;;6213309;28;20075;-80
2023/07/06 14:04:48;;;;;;;8.25;3.50;;;;;;;;;;6210424;28;20570;-82
2023/07/06 14:07:48;;;;;;;9.25;3.75;;;;;;;;;;6212596;28;20184;-80
2023/07/06 14:10:49;;;;;;;5.97;3.45;;;;;;;;;;6214380;28;20019;-80
2023/07/06 14:13:49;;;;;;;8.88;3.55;;;;;;;;;;6212144;28;20021;-81
2023/07/06 14:16:51;;;;;;;6.32;3.40;;;;;;;;;;6213534;28;20566;-81
2023/07/06 14:19:51;;;;;;;7.00;3.50;;;;;;;;;;6217710;28;20071;-81
2023/07/06 14:22:52;;;;;;;6.43;4.00;;;;;;;;;;6217822;28;20021;-80
2023/07/06 14:25:52;;;;;;;8.13;4.15;;;;;;;;;;6197369;28;20019;-80
2023/07/06 14:28:54;;;;;;;7.78;3.90;;;;;;;;;;6195671;28;20488;-80
2023/07/06 14:31:54;;;;;;;8.40;3.53;;;;;;;;;;6213281;28;20751;-80
2023/07/06 14:34:54;;;;;;;6.00;3.73;;;;;;;;;;6212899;28;20025;-80
2023/07/06 14:37:55;;;;;;;7.45;4.00;;;;;;;;;;6202661;28;20152;-80
2023/07/06 14:40:59;;;;;;;6.78;4.25;;;;;;;;;;6217732;28;20033;-81
2023/07/06 14:43:59;;;;;;;8.25;4.32;;;;;;;;;;6186694;28;20031;-82
2023/07/06 14:47:00;;;;;;;7.32;3.85;;;;;;;;;;6218125;28;20396;-80
2023/07/06 14:50:01;;;;;;;8.30;3.90;;;;;;;;;;6217527;28;20096;-81
2023/07/06 14:53:01;;;;;;;5.53;3.38;;;;;;;;;;6217515;28;20018;-81
2023/07/06 14:56:03;;;;;;;8.17;3.97;;;;;;;;;;6200461;28;20120;-83
2023/07/06 14:59:03;;;;;;;5.60;3.85;;;;;;;;;;6218065;28;20018;-81
2023/07/06 15:02:06;;;;;;;6.78;3.25;;;;;;;;;;6218056;28;20035;-81
2023/07/06 15:05:07;;;;;;;7.20;4.15;;;;;;;;;;6214265;28;20060;-81
2023/07/06 15:08:07;;;;;;;6.22;3.22;;;;;;;;;;6219858;28;20022;-81
2023/07/06 15:11:07;;;;;;;4.80;3.10;;;;;;;;;;6222656;28;20025;-81
2023/07/06 15:14:07;;;;;;;5.40;3.67;;;;;;;;;;6190241;28;20228;-80
2023/07/06 15:17:09;;;;;;;9.00;3.95;;;;;;;;;;6220840;28;20018;-80
2023/07/06 15:20:10;;;;;;;6.63;3.97;;;;;;;;;;6245141;28;20049;-81
2023/07/06 15:23:11;;;;;;;6.65;3.83;;;;;;;;;;6241401;28;20021;-81
2023/07/06 15:26:11;;;;;;;6.75;3.83;;;;;;;;;;6241137;28;20021;-79
2023/07/06 15:29:13;;;;;;;5.78;3.60;;;;;;;;;;6241691;28;20487;-81
2023/07/06 15:32:13;;;;;;;7.97;4.57;;;;;;;;;;6240333;28;20475;-81
2023/07/06 15:35:15;;;;;;;8.50;3.70;;;;;;;;;;6246104;28;20087;-81
2023/07/06 15:38:15;;;;;;;7.03;4.07;;;;;;;;;;6236536;28;20026;-81
2023/07/06 15:41:15;;;;;;;9.77;4.17;;;;;;;;;;6239639;28;20264;-81
2023/07/06 15:44:15;;;;;;;6.83;4.57;;;;;;;;;;6243379;28;20649;-76
2023/07/06 15:47:15;;;;;;;7.10;3.47;;;;;;;;;;6243735;28;20631;-76
2023/07/06 15:50:16;;;;;;;6.37;3.53;;;;;;;;;;6244253;28;20045;-76
2023/07/06 15:53:16;;;;;;;6.60;3.97;;;;;;;;;;6246560;28;20013;-76
2023/07/06 15:56:17;;;;;;;6.78;4.07;;;;;;;;;;6245802;28;20494;-77
2023/07/06 15:59:17;;;;;;;6.82;4.28;;;;;;;;;;6244887;28;20560;-77
2023/07/06 16:02:17;;;;;;;5.00;3.03;;;;;;;;;;6244150;28;20508;-77
2023/07/06 16:05:18;;;;;;;9.88;3.95;;;;;;;;;;6245907;28;20013;-77
2023/07/06 16:08:18;;;;;;;6.90;3.80;;;;;;;;;;6242334;28;20388;-76
2023/07/06 16:11:26;;;;;;;5.85;3.22;;;;;;;;;;6243747;28;20047;-77
2023/07/06 16:14:26;;;;;;;7.72;3.85;;;;;;;;;;6245047;28;20060;-77
2023/07/06 16:17:27;;;;;;;8.43;3.97;;;;;;;;;;6245252;28;20541;-77
2023/07/06 16:20:31;;;;;;;6.93;4.30;;;;;;;;;;6237850;28;20042;-77
2023/07/06 16:23:31;;;;;;;5.50;3.72;;;;;;;;;;6239197;28;20025;-77
2023/07/06 16:26:32;;;;;;;6.17;4.60;;;;;;;;;;6234696;28;20025;-75
2023/07/06 16:29:32;;;;;;;6.32;3.70;;;;;;;;;;6244280;28;20547;-76
2023/07/06 16:32:34;;;;;;;4.83;3.50;;;;;;;;;;6239472;28;20101;-76
2023/07/06 16:35:34;;;;;;;6.35;4.00;;;;;;;;;;6241569;28;20033;-77
2023/07/06 16:38:34;;;;;;;5.50;3.43;;;;;;;;;;6240371;28;20044;-76
2023/07/06 16:41:34;;;;;;;5.47;3.40;;;;;;;;;;6244297;28;20112;-76
2023/07/06 16:44:35;;;;;;;5.43;3.73;;;;;;;;;;6243978;28;20782;-76
2023/07/06 16:47:35;;;;;;;6.77;3.17;;;;;;;;;;6242220;28;20023;-75
2023/07/06 16:50:35;;;;;;;8.00;4.20;;;;;;;;;;6235477;28;20028;-77
2023/07/06 16:53:37;;;;;;;6.50;3.87;;;;;;;;;;6244404;28;20044;-76
2023/07/06 16:56:37;;;;;;;6.65;4.05;;;;;;;;;;6239556;28;20467;-76
2023/07/06 16:59:37;;;;;;;9.00;3.23;;;;;;;;;;6243704;28;20026;-75
2023/07/06 17:02:37;;;;;;;6.87;3.33;;;;;;;;;;6237311;28;20523;-75
2023/07/06 17:05:38;;;;;;;5.28;3.47;;;;;;;;;;6243320;28;20260;-76
2023/07/06 17:08:38;;;;;;;5.97;3.57;;;;;;;;;;6238052;28;20019;-76
2023/07/06 17:11:38;;;;;;;5.10;3.55;;;;;;;;;;6242781;28;20421;-75
2023/07/06 17:14:38;;;;;;;7.28;3.22;;;;;;;;;;6238326;28;20100;-76
2023/07/06 17:17:39;;;;;;;5.90;3.40;;;;;;;;;;6242705;28;20642;-76
2023/07/06 17:20:40;;;;;;;6.63;3.47;;;;;;;;;;6242066;28;20025;-76
2023/07/06 17:23:40;;;;;;;8.00;3.45;;;;;;;;;;6234433;28;20101;-76
2023/07/06 17:26:42;;;;;;;6.60;3.10;;;;;;;;;;6239682;28;20047;-76
2023/07/06 17:29:44;;;;;;;6.03;3.55;;;;;;;;;;6232465;28;20260;-76
2023/07/06 17:32:45;;;;;;;9.73;4.22;;;;;;;;;;6239294;28;20048;-77
2023/07/06 17:35:45;;;;;;;6.07;3.17;;;;;;;;;;6244445;28;20488;-76
2023/07/06 17:38:46;;;;;;;4.75;3.60;;;;;;;;;;6240947;28;20036;-77
2023/07/06 17:41:46;;;;;;;6.90;3.53;;;;;;;;;;6243188;28;20391;-76
2023/07/06 17:44:48;;;;;;;6.47;3.40;;;;;;;;;;6240595;28;20033;-82
2023/07/06 17:47:48;;;;;;;5.10;3.38;;;;;;;;;;6243926;28;20291;-82
2023/07/06 17:50:48;;;;;;;7.00;3.93;;;;;;;;;;6243679;28;20021;-83
2023/07/06 17:53:48;;;;;;;6.50;3.08;;;;;;;;;;6236277;28;20017;-82
2023/07/06 17:56:50;;;;;;;9.03;3.60;;;;;;;;;;6239613;28;20188;-82
2023/07/06 17:59:50;;;;;;;7.57;3.83;;;;;;;;;;6243052;28;20022;-80
2023/07/06 18:02:51;;;;;;;;;;;;;;;;;;6240113;28;20115;-82
2023/07/06 18:05:52;;;;;;;6.77;3.23;;;;;;;;;;6243591;28;19909;-82
2023/07/06 18:08:52;;;;;;;9.82;6.10;;;;;;;;;;6243786;28;20284;-82
2023/07/06 18:11:52;;;;;;;13.70;5.30;;;;;;;;;;6248539;28;20036;-81
2023/07/06 18:14:52;;;;;;;10.30;5.37;;;;;;;;;;6271392;28;20052;-79
2023/07/06 18:17:52;;;;;;;11.13;5.28;;;;;;;;;;6256644;28;20043;-80